sensor_id;sensor_type;location;lat;lon;timestamp;P1;durP1;ratioP1;P2;durP2;ratioP2
15155;SDS011;7678;50.058;8.306;2022-09-13T00:00:13;5.50;;;5.00;;
15155;SDS011;7678;50.058;8.306;2022-09-13T00:02:42;6.60;;;5.30;;
15155;SDS011;7678;50.058;8.306;2022-09-13T00:05:10;5.50;;;5.00;;
15155;SDS011;7678;50.058;8.306;2022-09-13T00:07:38;6.33;;;4.77;;
15155;SDS011;7678;50.058;8.306;2022-09-13T00:10:06;5.90;;;5.30;;
15155;SDS011;7678;50.058;8.306;2022-09-13T00:12:35;7.67;;;5.10;;
15155;SDS011;7678;50.058;8.306;2022-09-13T00:15:04;5.50;;;5.00;;
15155;SDS011;7678;50.058;8.306;2022-09-13T00:17:34;5.00;;;4.60;;
15155;SDS011;7678;50.058;8.306;2022-09-13T00:20:02;5.07;;;4.50;;
15155;SDS011;7678;50.058;8.306;2022-09-13T00:22:31;5.57;;;4.93;;
15155;SDS011;7678;50.058;8.306;2022-09-13T00:24:59;5.07;;;4.57;;
15155;SDS011;7678;50.058;8.306;2022-09-13T00:27:27;6.23;;;5.63;;
15155;SDS011;7678;50.058;8.306;2022-09-13T00:29:55;6.23;;;5.63;;
15155;SDS011;7678;50.058;8.306;2022-09-13T00:32:24;5.63;;;5.07;;
15155;SDS011;7678;50.058;8.306;2022-09-13T00:34:52;7.57;;;5.10;;
15155;SDS011;7678;50.058;8.306;2022-09-13T00:37:20;5.97;;;5.30;;
15155;SDS011;7678;50.058;8.306;2022-09-13T00:39:48;5.93;;;5.37;;
15155;SDS011;7678;50.058;8.306;2022-09-13T00:42:16;5.90;;;5.17;;
15155;SDS011;7678;50.058;8.306;2022-09-13T00:44:47;7.67;;;5.83;;
15155;SDS011;7678;50.058;8.306;2022-09-13T00:47:21;6.23;;;5.33;;
15155;SDS011;7678;50.058;8.306;2022-09-13T00:49:59;6.53;;;5.13;;
15155;SDS011;7678;50.058;8.306;2022-09-13T00:52:33;6.00;;;5.23;;
15155;SDS011;7678;50.058;8.306;2022-09-13T00:55:10;6.50;;;5.87;;
15155;SDS011;7678;50.058;8.306;2022-09-13T00:57:46;5.83;;;5.33;;
15155;SDS011;7678;50.058;8.306;2022-09-13T01:00:15;8.47;;;5.47;;
15155;SDS011;7678;50.058;8.306;2022-09-13T01:02:48;5.50;;;5.00;;
15155;SDS011;7678;50.058;8.306;2022-09-13T01:05:19;8.60;;;5.37;;
15155;SDS011;7678;50.058;8.306;2022-09-13T01:07:52;5.50;;;4.97;;
15155;SDS011;7678;50.058;8.306;2022-09-13T01:10:22;5.97;;;5.37;;
15155;SDS011;7678;50.058;8.306;2022-09-13T01:12:53;5.80;;;5.03;;
15155;SDS011;7678;50.058;8.306;2022-09-13T01:15:25;7.33;;;5.13;;
15155;SDS011;7678;50.058;8.306;2022-09-13T01:17:55;6.53;;;5.93;;
15155;SDS011;7678;50.058;8.306;2022-09-13T01:20:24;5.60;;;5.00;;
15155;SDS011;7678;50.058;8.306;2022-09-13T01:29:09;6.40;;;5.70;;
15155;SDS011;7678;50.058;8.306;2022-09-13T01:31:53;7.50;;;5.47;;
15155;SDS011;7678;50.058;8.306;2022-09-13T01:34:33;6.30;;;5.70;;
15155;SDS011;7678;50.058;8.306;2022-09-13T01:37:16;5.53;;;5.03;;
15155;SDS011;7678;50.058;8.306;2022-09-13T01:40:00;6.47;;;5.73;;
15155;SDS011;7678;50.058;8.306;2022-09-13T01:42:37;7.27;;;6.57;;
15155;SDS011;7678;50.058;8.306;2022-09-13T01:45:19;7.10;;;6.17;;
15155;SDS011;7678;50.058;8.306;2022-09-13T01:47:56;6.93;;;6.23;;
15155;SDS011;7678;50.058;8.306;2022-09-13T01:50:32;10.73;;;6.60;;
15155;SDS011;7678;50.058;8.306;2022-09-13T01:53:04;5.80;;;5.30;;
15155;SDS011;7678;50.058;8.306;2022-09-13T01:55:41;6.10;;;5.30;;
15155;SDS011;7678;50.058;8.306;2022-09-13T01:58:15;8.00;;;5.60;;
15155;SDS011;7678;50.058;8.306;2022-09-13T02:00:51;7.13;;;6.20;;
15155;SDS011;7678;50.058;8.306;2022-09-13T02:03:29;6.40;;;5.80;;
15155;SDS011;7678;50.058;8.306;2022-09-13T02:06:04;7.77;;;5.43;;
15155;SDS011;7678;50.058;8.306;2022-09-13T02:08:36;7.80;;;5.60;;
15155;SDS011;7678;50.058;8.306;2022-09-13T02:11:07;5.87;;;5.27;;
15155;SDS011;7678;50.058;8.306;2022-09-13T02:13:38;5.97;;;5.33;;
15155;SDS011;7678;50.058;8.306;2022-09-13T02:16:11;6.57;;;5.63;;
15155;SDS011;7678;50.058;8.306;2022-09-13T02:18:46;7.17;;;6.30;;
15155;SDS011;7678;50.058;8.306;2022-09-13T02:21:19;5.93;;;5.30;;
15155;SDS011;7678;50.058;8.306;2022-09-13T02:23:50;7.13;;;5.40;;
15155;SDS011;7678;50.058;8.306;2022-09-13T02:26:21;6.20;;;5.43;;
15155;SDS011;7678;50.058;8.306;2022-09-13T02:28:51;7.27;;;5.20;;
15155;SDS011;7678;50.058;8.306;2022-09-13T02:31:25;8.20;;;5.90;;
15155;SDS011;7678;50.058;8.306;2022-09-13T02:34:02;6.10;;;5.50;;
15155;SDS011;7678;50.058;8.306;2022-09-13T02:36:35;6.90;;;5.77;;
15155;SDS011;7678;50.058;8.306;2022-09-13T02:39:07;6.70;;;6.10;;
15155;SDS011;7678;50.058;8.306;2022-09-13T02:41:41;7.43;;;5.50;;
15155;SDS011;7678;50.058;8.306;2022-09-13T02:44:15;8.13;;;5.83;;
15155;SDS011;7678;50.058;8.306;2022-09-13T02:46:55;6.50;;;5.80;;
15155;SDS011;7678;50.058;8.306;2022-09-13T02:49:37;6.00;;;5.17;;
15155;SDS011;7678;50.058;8.306;2022-09-13T02:52:18;6.43;;;5.83;;
15155;SDS011;7678;50.058;8.306;2022-09-13T02:54:53;10.00;;;6.10;;
15155;SDS011;7678;50.058;8.306;2022-09-13T02:57:26;7.93;;;5.63;;
15155;SDS011;7678;50.058;8.306;2022-09-13T02:59:59;6.53;;;5.93;;
15155;SDS011;7678;50.058;8.306;2022-09-13T03:02:28;7.90;;;6.80;;
15155;SDS011;7678;50.058;8.306;2022-09-13T03:05:01;7.60;;;6.43;;
15155;SDS011;7678;50.058;8.306;2022-09-13T03:07:28;6.53;;;5.93;;
15155;SDS011;7678;50.058;8.306;2022-09-13T03:09:58;7.27;;;6.20;;
15155;SDS011;7678;50.058;8.306;2022-09-13T03:12:35;7.03;;;6.10;;
15155;SDS011;7678;50.058;8.306;2022-09-13T03:15:24;6.53;;;5.93;;
15155;SDS011;7678;50.058;8.306;2022-09-13T03:18:06;7.07;;;5.83;;
15155;SDS011;7678;50.058;8.306;2022-09-13T03:20:45;6.63;;;5.93;;
15155;SDS011;7678;50.058;8.306;2022-09-13T03:26:26;6.33;;;5.73;;
15155;SDS011;7678;50.058;8.306;2022-09-13T03:29:05;8.27;;;7.27;;
15155;SDS011;7678;50.058;8.306;2022-09-13T03:31:44;7.97;;;6.57;;
15155;SDS011;7678;50.058;8.306;2022-09-13T03:34:21;8.00;;;6.30;;
15155;SDS011;7678;50.058;8.306;2022-09-13T03:36:57;7.87;;;6.40;;
15155;SDS011;7678;50.058;8.306;2022-09-13T03:39:36;8.97;;;6.57;;
15155;SDS011;7678;50.058;8.306;2022-09-13T03:42:10;7.60;;;6.77;;
15155;SDS011;7678;50.058;8.306;2022-09-13T03:44:44;6.93;;;5.93;;
15155;SDS011;7678;50.058;8.306;2022-09-13T03:47:15;7.00;;;6.30;;
15155;SDS011;7678;50.058;8.306;2022-09-13T03:49:44;8.70;;;6.50;;
15155;SDS011;7678;50.058;8.306;2022-09-13T03:52:12;7.83;;;6.10;;
15155;SDS011;7678;50.058;8.306;2022-09-13T03:54:42;6.13;;;5.53;;
15155;SDS011;7678;50.058;8.306;2022-09-13T03:57:10;7.83;;;5.77;;
15155;SDS011;7678;50.058;8.306;2022-09-13T03:59:42;8.97;;;6.30;;
15155;SDS011;7678;50.058;8.306;2022-09-13T04:02:13;7.27;;;6.23;;
15155;SDS011;7678;50.058;8.306;2022-09-13T04:04:43;10.97;;;8.73;;
15155;SDS011;7678;50.058;8.306;2022-09-13T04:07:14;9.23;;;7.73;;
15155;SDS011;7678;50.058;8.306;2022-09-13T04:09:44;15.87;;;11.33;;
15155;SDS011;7678;50.058;8.306;2022-09-13T04:12:12;11.13;;;8.07;;
15155;SDS011;7678;50.058;8.306;2022-09-13T04:14:41;8.53;;;6.43;;
15155;SDS011;7678;50.058;8.306;2022-09-13T04:17:10;7.03;;;6.33;;
15155;SDS011;7678;50.058;8.306;2022-09-13T04:19:38;11.00;;;6.90;;
15155;SDS011;7678;50.058;8.306;2022-09-13T04:22:06;10.40;;;7.60;;
15155;SDS011;7678;50.058;8.306;2022-09-13T04:24:34;9.33;;;8.10;;
15155;SDS011;7678;50.058;8.306;2022-09-13T04:27:05;7.50;;;6.73;;
15155;SDS011;7678;50.058;8.306;2022-09-13T04:29:33;6.80;;;5.70;;
15155;SDS011;7678;50.058;8.306;2022-09-13T04:32:01;7.13;;;6.43;;
15155;SDS011;7678;50.058;8.306;2022-09-13T04:34:29;7.27;;;5.97;;
15155;SDS011;7678;50.058;8.306;2022-09-13T04:36:57;7.60;;;6.60;;
15155;SDS011;7678;50.058;8.306;2022-09-13T04:39:25;6.80;;;5.90;;
15155;SDS011;7678;50.058;8.306;2022-09-13T04:41:53;6.70;;;5.60;;
15155;SDS011;7678;50.058;8.306;2022-09-13T04:44:23;7.17;;;6.47;;
15155;SDS011;7678;50.058;8.306;2022-09-13T04:46:51;6.83;;;6.20;;
15155;SDS011;7678;50.058;8.306;2022-09-13T04:49:19;6.20;;;5.60;;
15155;SDS011;7678;50.058;8.306;2022-09-13T04:51:47;6.47;;;5.73;;
15155;SDS011;7678;50.058;8.306;2022-09-13T04:54:15;6.47;;;5.80;;
15155;SDS011;7678;50.058;8.306;2022-09-13T04:56:44;8.67;;;6.37;;
15155;SDS011;7678;50.058;8.306;2022-09-13T04:59:12;9.43;;;6.20;;
15155;SDS011;7678;50.058;8.306;2022-09-13T05:01:42;20.90;;;15.47;;
15155;SDS011;7678;50.058;8.306;2022-09-13T05:04:10;17.97;;;8.63;;
15155;SDS011;7678;50.058;8.306;2022-09-13T05:06:38;7.10;;;5.93;;
15155;SDS011;7678;50.058;8.306;2022-09-13T05:09:09;8.90;;;6.07;;
15155;SDS011;7678;50.058;8.306;2022-09-13T05:11:40;8.37;;;5.97;;
15155;SDS011;7678;50.058;8.306;2022-09-13T05:14:09;6.80;;;6.17;;
15155;SDS011;7678;50.058;8.306;2022-09-13T05:16:37;8.27;;;6.33;;
15155;SDS011;7678;50.058;8.306;2022-09-13T05:19:07;6.93;;;6.17;;
15155;SDS011;7678;50.058;8.306;2022-09-13T05:21:36;6.77;;;6.13;;
15155;SDS011;7678;50.058;8.306;2022-09-13T05:24:04;8.57;;;5.93;;
15155;SDS011;7678;50.058;8.306;2022-09-13T05:26:32;6.83;;;6.10;;
15155;SDS011;7678;50.058;8.306;2022-09-13T05:29:01;7.90;;;6.27;;
15155;SDS011;7678;50.058;8.306;2022-09-13T05:31:31;7.27;;;6.57;;
15155;SDS011;7678;50.058;8.306;2022-09-13T05:34:02;8.57;;;6.43;;
15155;SDS011;7678;50.058;8.306;2022-09-13T05:36:33;8.70;;;6.10;;
15155;SDS011;7678;50.058;8.306;2022-09-13T05:39:01;7.20;;;6.40;;
15155;SDS011;7678;50.058;8.306;2022-09-13T05:41:49;6.40;;;5.47;;
15155;SDS011;7678;50.058;8.306;2022-09-13T05:44:17;6.80;;;5.40;;
15155;SDS011;7678;50.058;8.306;2022-09-13T05:46:45;7.30;;;6.03;;
15155;SDS011;7678;50.058;8.306;2022-09-13T05:49:14;7.43;;;5.40;;
15155;SDS011;7678;50.058;8.306;2022-09-13T05:51:43;7.07;;;5.60;;
15155;SDS011;7678;50.058;8.306;2022-09-13T05:54:11;9.00;;;6.93;;
15155;SDS011;7678;50.058;8.306;2022-09-13T05:56:39;7.97;;;5.80;;
15155;SDS011;7678;50.058;8.306;2022-09-13T05:59:09;8.67;;;6.20;;
15155;SDS011;7678;50.058;8.306;2022-09-13T06:01:38;7.10;;;5.60;;
15155;SDS011;7678;50.058;8.306;2022-09-13T06:04:06;7.63;;;6.00;;
15155;SDS011;7678;50.058;8.306;2022-09-13T06:06:34;12.87;;;5.87;;
15155;SDS011;7678;50.058;8.306;2022-09-13T06:09:04;7.30;;;6.30;;
15155;SDS011;7678;50.058;8.306;2022-09-13T06:11:33;9.87;;;5.87;;
15155;SDS011;7678;50.058;8.306;2022-09-13T06:14:01;6.33;;;5.70;;
15155;SDS011;7678;50.058;8.306;2022-09-13T06:16:29;6.60;;;6.00;;
15155;SDS011;7678;50.058;8.306;2022-09-13T06:18:58;8.93;;;7.03;;
15155;SDS011;7678;50.058;8.306;2022-09-13T06:21:26;7.77;;;6.97;;
15155;SDS011;7678;50.058;8.306;2022-09-13T06:23:55;7.77;;;6.80;;
15155;SDS011;7678;50.058;8.306;2022-09-13T06:26:24;7.30;;;6.57;;
15155;SDS011;7678;50.058;8.306;2022-09-13T06:28:54;7.53;;;5.90;;
15155;SDS011;7678;50.058;8.306;2022-09-13T06:31:25;6.47;;;5.87;;
15155;SDS011;7678;50.058;8.306;2022-09-13T06:33:54;8.47;;;6.20;;
15155;SDS011;7678;50.058;8.306;2022-09-13T06:36:23;8.00;;;6.40;;
15155;SDS011;7678;50.058;8.306;2022-09-13T06:38:51;8.47;;;7.00;;
15155;SDS011;7678;50.058;8.306;2022-09-13T06:41:20;6.87;;;5.90;;
15155;SDS011;7678;50.058;8.306;2022-09-13T06:43:53;7.67;;;6.43;;
15155;SDS011;7678;50.058;8.306;2022-09-13T06:46:23;9.03;;;6.27;;
15155;SDS011;7678;50.058;8.306;2022-09-13T06:48:52;9.73;;;6.60;;
15155;SDS011;7678;50.058;8.306;2022-09-13T06:51:22;8.07;;;7.17;;
15155;SDS011;7678;50.058;8.306;2022-09-13T06:53:51;11.30;;;7.20;;
15155;SDS011;7678;50.058;8.306;2022-09-13T06:56:22;9.47;;;6.57;;
15155;SDS011;7678;50.058;8.306;2022-09-13T06:58:53;8.43;;;6.90;;
15155;SDS011;7678;50.058;8.306;2022-09-13T07:01:24;9.27;;;7.50;;
15155;SDS011;7678;50.058;8.306;2022-09-13T07:03:54;7.33;;;6.63;;
15155;SDS011;7678;50.058;8.306;2022-09-13T07:06:25;9.93;;;7.87;;
15155;SDS011;7678;50.058;8.306;2022-09-13T07:08:55;8.90;;;7.03;;
15155;SDS011;7678;50.058;8.306;2022-09-13T07:11:25;8.30;;;7.40;;
15155;SDS011;7678;50.058;8.306;2022-09-13T07:13:57;8.83;;;7.00;;
15155;SDS011;7678;50.058;8.306;2022-09-13T07:16:26;6.93;;;6.13;;
15155;SDS011;7678;50.058;8.306;2022-09-13T07:18:55;7.87;;;7.07;;
15155;SDS011;7678;50.058;8.306;2022-09-13T07:21:25;8.23;;;6.43;;
15155;SDS011;7678;50.058;8.306;2022-09-13T07:23:54;7.83;;;6.60;;
15155;SDS011;7678;50.058;8.306;2022-09-13T07:26:23;6.83;;;6.23;;
15155;SDS011;7678;50.058;8.306;2022-09-13T07:28:53;10.27;;;7.17;;
15155;SDS011;7678;50.058;8.306;2022-09-13T07:31:24;15.67;;;7.90;;
15155;SDS011;7678;50.058;8.306;2022-09-13T07:33:54;9.70;;;6.93;;
15155;SDS011;7678;50.058;8.306;2022-09-13T07:36:23;8.10;;;7.30;;
15155;SDS011;7678;50.058;8.306;2022-09-13T07:38:52;11.93;;;7.27;;
15155;SDS011;7678;50.058;8.306;2022-09-13T07:41:20;11.03;;;8.13;;
15155;SDS011;7678;50.058;8.306;2022-09-13T07:43:50;9.93;;;8.07;;
15155;SDS011;7678;50.058;8.306;2022-09-13T07:46:19;9.93;;;7.57;;
15155;SDS011;7678;50.058;8.306;2022-09-13T07:48:50;9.97;;;7.90;;
15155;SDS011;7678;50.058;8.306;2022-09-13T07:51:20;12.00;;;8.00;;
15155;SDS011;7678;50.058;8.306;2022-09-13T07:53:50;11.63;;;7.53;;
15155;SDS011;7678;50.058;8.306;2022-09-13T07:56:23;11.80;;;7.07;;
15155;SDS011;7678;50.058;8.306;2022-09-13T07:58:52;11.27;;;7.53;;
15155;SDS011;7678;50.058;8.306;2022-09-13T08:01:21;8.30;;;7.40;;
15155;SDS011;7678;50.058;8.306;2022-09-13T08:03:52;9.93;;;7.90;;
15155;SDS011;7678;50.058;8.306;2022-09-13T08:06:20;14.43;;;7.67;;
15155;SDS011;7678;50.058;8.306;2022-09-13T08:08:49;12.47;;;8.83;;
15155;SDS011;7678;50.058;8.306;2022-09-13T08:11:18;11.40;;;7.90;;
15155;SDS011;7678;50.058;8.306;2022-09-13T08:13:49;9.40;;;8.50;;
15155;SDS011;7678;50.058;8.306;2022-09-13T08:16:18;11.00;;;8.73;;
15155;SDS011;7678;50.058;8.306;2022-09-13T08:18:47;12.60;;;7.90;;
15155;SDS011;7678;50.058;8.306;2022-09-13T08:21:18;11.77;;;8.47;;
15155;SDS011;7678;50.058;8.306;2022-09-13T08:23:47;10.30;;;7.70;;
15155;SDS011;7678;50.058;8.306;2022-09-13T08:26:15;12.00;;;9.33;;
15155;SDS011;7678;50.058;8.306;2022-09-13T08:28:43;10.17;;;9.07;;
15155;SDS011;7678;50.058;8.306;2022-09-13T08:31:12;10.73;;;8.73;;
15155;SDS011;7678;50.058;8.306;2022-09-13T08:33:43;11.40;;;9.50;;
15155;SDS011;7678;50.058;8.306;2022-09-13T08:36:12;13.87;;;9.83;;
15155;SDS011;7678;50.058;8.306;2022-09-13T08:38:45;12.77;;;9.03;;
15155;SDS011;7678;50.058;8.306;2022-09-13T08:41:19;12.33;;;9.30;;
15155;SDS011;7678;50.058;8.306;2022-09-13T08:44:03;10.40;;;8.30;;
15155;SDS011;7678;50.058;8.306;2022-09-13T08:46:37;13.33;;;8.33;;
15155;SDS011;7678;50.058;8.306;2022-09-13T08:49:10;10.57;;;8.27;;
15155;SDS011;7678;50.058;8.306;2022-09-13T08:51:44;11.20;;;8.63;;
15155;SDS011;7678;50.058;8.306;2022-09-13T08:54:15;14.03;;;9.43;;
15155;SDS011;7678;50.058;8.306;2022-09-13T08:56:47;14.50;;;9.10;;
15155;SDS011;7678;50.058;8.306;2022-09-13T09:02:25;13.77;;;9.83;;
15155;SDS011;7678;50.058;8.306;2022-09-13T09:05:08;14.00;;;9.13;;
15155;SDS011;7678;50.058;8.306;2022-09-13T09:07:44;13.13;;;9.37;;
15155;SDS011;7678;50.058;8.306;2022-09-13T09:10:16;12.50;;;10.17;;
15155;SDS011;7678;50.058;8.306;2022-09-13T09:12:46;13.67;;;10.20;;
15155;SDS011;7678;50.058;8.306;2022-09-13T09:15:20;13.33;;;9.87;;
15155;SDS011;7678;50.058;8.306;2022-09-13T09:17:53;12.20;;;9.30;;
15155;SDS011;7678;50.058;8.306;2022-09-13T09:20:25;13.23;;;10.90;;
15155;SDS011;7678;50.058;8.306;2022-09-13T09:22:58;19.13;;;12.13;;
15155;SDS011;7678;50.058;8.306;2022-09-13T09:25:32;13.63;;;11.37;;
15155;SDS011;7678;50.058;8.306;2022-09-13T09:28:01;14.00;;;11.23;;
15155;SDS011;7678;50.058;8.306;2022-09-13T09:30:40;15.23;;;11.60;;
15155;SDS011;7678;50.058;8.306;2022-09-13T09:33:19;19.07;;;11.53;;
15155;SDS011;7678;50.058;8.306;2022-09-13T09:35:58;14.80;;;11.70;;
15155;SDS011;7678;50.058;8.306;2022-09-13T09:38:37;18.60;;;11.20;;
15155;SDS011;7678;50.058;8.306;2022-09-13T09:41:13;16.07;;;11.80;;
15155;SDS011;7678;50.058;8.306;2022-09-13T09:43:51;19.07;;;13.07;;
15155;SDS011;7678;50.058;8.306;2022-09-13T09:46:26;21.27;;;13.17;;
15155;SDS011;7678;50.058;8.306;2022-09-13T09:49:00;20.77;;;12.50;;
15155;SDS011;7678;50.058;8.306;2022-09-13T09:51:53;19.93;;;13.00;;
15155;SDS011;7678;50.058;8.306;2022-09-13T09:54:22;18.43;;;13.70;;
15155;SDS011;7678;50.058;8.306;2022-09-13T09:56:55;20.07;;;15.10;;
15155;SDS011;7678;50.058;8.306;2022-09-13T09:59:27;20.73;;;14.50;;
15155;SDS011;7678;50.058;8.306;2022-09-13T10:01:57;23.67;;;14.43;;
15155;SDS011;7678;50.058;8.306;2022-09-13T10:04:27;21.97;;;14.03;;
15155;SDS011;7678;50.058;8.306;2022-09-13T10:09:53;16.63;;;13.50;;
15155;SDS011;7678;50.058;8.306;2022-09-13T10:12:26;20.47;;;14.30;;
15155;SDS011;7678;50.058;8.306;2022-09-13T10:15:02;19.20;;;15.00;;
15155;SDS011;7678;50.058;8.306;2022-09-13T10:17:33;17.73;;;13.53;;
15155;SDS011;7678;50.058;8.306;2022-09-13T10:20:02;17.87;;;14.50;;
15155;SDS011;7678;50.058;8.306;2022-09-13T10:22:47;18.57;;;13.73;;
15155;SDS011;7678;50.058;8.306;2022-09-13T10:25:37;18.63;;;13.50;;
15155;SDS011;7678;50.058;8.306;2022-09-13T10:28:14;17.80;;;12.43;;
15155;SDS011;7678;50.058;8.306;2022-09-13T10:30:47;14.90;;;12.07;;
15155;SDS011;7678;50.058;8.306;2022-09-13T10:33:23;13.43;;;12.03;;
15155;SDS011;7678;50.058;8.306;2022-09-13T10:35:54;17.53;;;12.07;;
15155;SDS011;7678;50.058;8.306;2022-09-13T10:38:27;15.07;;;11.97;;
15155;SDS011;7678;50.058;8.306;2022-09-13T10:40:58;16.70;;;12.60;;
15155;SDS011;7678;50.058;8.306;2022-09-13T10:43:31;13.83;;;11.27;;
15155;SDS011;7678;50.058;8.306;2022-09-13T10:46:01;14.33;;;11.40;;
15155;SDS011;7678;50.058;8.306;2022-09-13T10:48:42;13.47;;;10.27;;
15155;SDS011;7678;50.058;8.306;2022-09-13T10:51:19;12.87;;;9.30;;
15155;SDS011;7678;50.058;8.306;2022-09-13T10:54:06;11.17;;;9.40;;
15155;SDS011;7678;50.058;8.306;2022-09-13T10:56:36;14.13;;;10.60;;
15155;SDS011;7678;50.058;8.306;2022-09-13T10:59:16;13.27;;;9.40;;
15155;SDS011;7678;50.058;8.306;2022-09-13T11:01:51;11.77;;;9.60;;
15155;SDS011;7678;50.058;8.306;2022-09-13T11:04:43;13.47;;;9.67;;
15155;SDS011;7678;50.058;8.306;2022-09-13T11:07:26;12.20;;;9.37;;
15155;SDS011;7678;50.058;8.306;2022-09-13T11:10:07;9.10;;;8.20;;
15155;SDS011;7678;50.058;8.306;2022-09-13T11:12:41;8.67;;;7.70;;
15155;SDS011;7678;50.058;8.306;2022-09-13T11:15:23;11.40;;;8.73;;
15155;SDS011;7678;50.058;8.306;2022-09-13T11:18:04;9.70;;;7.97;;
15155;SDS011;7678;50.058;8.306;2022-09-13T11:21:08;9.10;;;7.47;;
15155;SDS011;7678;50.058;8.306;2022-09-13T11:23:51;8.73;;;7.93;;
15155;SDS011;7678;50.058;8.306;2022-09-13T11:26:42;10.63;;;9.27;;
15155;SDS011;7678;50.058;8.306;2022-09-13T11:29:21;13.03;;;8.77;;
15155;SDS011;7678;50.058;8.306;2022-09-13T11:32:07;9.87;;;8.23;;
15155;SDS011;7678;50.058;8.306;2022-09-13T11:34:48;10.37;;;7.50;;
15155;SDS011;7678;50.058;8.306;2022-09-13T11:37:39;9.70;;;8.30;;
15155;SDS011;7678;50.058;8.306;2022-09-13T11:40:21;9.03;;;8.13;;
15155;SDS011;7678;50.058;8.306;2022-09-13T11:43:01;7.40;;;6.60;;
15155;SDS011;7678;50.058;8.306;2022-09-13T11:45:43;10.77;;;8.00;;
15155;SDS011;7678;50.058;8.306;2022-09-13T11:48:35;8.87;;;7.53;;
15155;SDS011;7678;50.058;8.306;2022-09-13T11:51:29;8.10;;;7.20;;
15155;SDS011;7678;50.058;8.306;2022-09-13T11:54:09;6.70;;;6.03;;
15155;SDS011;7678;50.058;8.306;2022-09-13T11:56:45;6.30;;;5.70;;
15155;SDS011;7678;50.058;8.306;2022-09-13T11:59:18;6.67;;;5.97;;
15155;SDS011;7678;50.058;8.306;2022-09-13T12:01:56;5.13;;;4.67;;
15155;SDS011;7678;50.058;8.306;2022-09-13T12:04:31;8.37;;;5.10;;
15155;SDS011;7678;50.058;8.306;2022-09-13T12:07:03;6.57;;;5.60;;
15155;SDS011;7678;50.058;8.306;2022-09-13T12:09:39;5.27;;;4.77;;
15155;SDS011;7678;50.058;8.306;2022-09-13T12:12:14;8.80;;;5.57;;
15155;SDS011;7678;50.058;8.306;2022-09-13T12:14:43;8.03;;;5.33;;
15155;SDS011;7678;50.058;8.306;2022-09-13T12:17:21;7.40;;;6.00;;
15155;SDS011;7678;50.058;8.306;2022-09-13T12:19:54;6.97;;;5.50;;
15155;SDS011;7678;50.058;8.306;2022-09-13T12:22:25;6.60;;;5.50;;
15155;SDS011;7678;50.058;8.306;2022-09-13T12:24:57;6.63;;;4.70;;
15155;SDS011;7678;50.058;8.306;2022-09-13T12:27:30;8.40;;;6.30;;
15155;SDS011;7678;50.058;8.306;2022-09-13T12:30:06;6.60;;;5.83;;
15155;SDS011;7678;50.058;8.306;2022-09-13T12:32:41;11.07;;;6.60;;
15155;SDS011;7678;50.058;8.306;2022-09-13T12:35:16;8.70;;;5.87;;
15155;SDS011;7678;50.058;8.306;2022-09-13T12:41:10;8.20;;;7.40;;
15155;SDS011;7678;50.058;8.306;2022-09-13T12:43:52;8.83;;;7.90;;
15155;SDS011;7678;50.058;8.306;2022-09-13T12:47:01;11.83;;;8.60;;
15155;SDS011;7678;50.058;8.306;2022-09-13T12:49:44;13.67;;;8.40;;
15155;SDS011;7678;50.058;8.306;2022-09-13T12:52:50;11.20;;;8.43;;
15155;SDS011;7678;50.058;8.306;2022-09-13T12:55:33;11.73;;;8.80;;
15155;SDS011;7678;50.058;8.306;2022-09-13T12:58:33;13.47;;;9.50;;
15155;SDS011;7678;50.058;8.306;2022-09-13T13:01:15;10.03;;;7.87;;
15155;SDS011;7678;50.058;8.306;2022-09-13T13:03:48;16.17;;;8.70;;
15155;SDS011;7678;50.058;8.306;2022-09-13T13:06:30;12.17;;;8.50;;
15155;SDS011;7678;50.058;8.306;2022-09-13T13:09:03;12.40;;;7.80;;
15155;SDS011;7678;50.058;8.306;2022-09-13T13:11:40;12.13;;;7.90;;
15155;SDS011;7678;50.058;8.306;2022-09-13T13:14:42;11.20;;;7.57;;
15155;SDS011;7678;50.058;8.306;2022-09-13T13:23:21;9.23;;;5.77;;
15155;SDS011;7678;50.058;8.306;2022-09-13T13:26:09;9.67;;;5.20;;
15155;SDS011;7678;50.058;8.306;2022-09-13T13:28:52;5.87;;;5.03;;
15155;SDS011;7678;50.058;8.306;2022-09-13T13:31:33;6.30;;;4.37;;
15155;SDS011;7678;50.058;8.306;2022-09-13T13:36:55;7.40;;;4.60;;
15155;SDS011;7678;50.058;8.306;2022-09-13T13:39:37;6.87;;;5.67;;
15155;SDS011;7678;50.058;8.306;2022-09-13T13:42:12;14.93;;;6.57;;
15155;SDS011;7678;50.058;8.306;2022-09-13T13:53:56;8.87;;;4.60;;
15155;SDS011;7678;50.058;8.306;2022-09-13T13:56:28;9.13;;;4.93;;
15155;SDS011;7678;50.058;8.306;2022-09-13T13:59:04;10.03;;;5.60;;
15155;SDS011;7678;50.058;8.306;2022-09-13T14:01:38;5.93;;;4.60;;
15155;SDS011;7678;50.058;8.306;2022-09-13T14:07:39;8.03;;;5.23;;
15155;SDS011;7678;50.058;8.306;2022-09-13T14:10:35;8.33;;;3.90;;
15155;SDS011;7678;50.058;8.306;2022-09-13T14:13:18;9.30;;;5.27;;
15155;SDS011;7678;50.058;8.306;2022-09-13T14:16:06;10.87;;;5.20;;
15155;SDS011;7678;50.058;8.306;2022-09-13T14:18:51;6.40;;;5.20;;
15155;SDS011;7678;50.058;8.306;2022-09-13T14:21:32;8.80;;;5.20;;
15155;SDS011;7678;50.058;8.306;2022-09-13T14:24:07;6.77;;;4.93;;
15155;SDS011;7678;50.058;8.306;2022-09-13T14:26:41;7.17;;;5.40;;
15155;SDS011;7678;50.058;8.306;2022-09-13T14:29:11;7.10;;;5.00;;
15155;SDS011;7678;50.058;8.306;2022-09-13T14:31:46;7.37;;;4.57;;
15155;SDS011;7678;50.058;8.306;2022-09-13T14:34:22;7.57;;;4.27;;
15155;SDS011;7678;50.058;8.306;2022-09-13T14:36:54;6.87;;;5.23;;
15155;SDS011;7678;50.058;8.306;2022-09-13T14:39:24;7.50;;;5.40;;
15155;SDS011;7678;50.058;8.306;2022-09-13T14:42:00;6.20;;;5.07;;
15155;SDS011;7678;50.058;8.306;2022-09-13T14:44:29;6.83;;;5.33;;
15155;SDS011;7678;50.058;8.306;2022-09-13T14:47:00;8.07;;;4.47;;
15155;SDS011;7678;50.058;8.306;2022-09-13T14:49:33;8.20;;;5.20;;
15155;SDS011;7678;50.058;8.306;2022-09-13T14:52:14;5.77;;;4.60;;
15155;SDS011;7678;50.058;8.306;2022-09-13T14:54:48;5.00;;;4.50;;
15155;SDS011;7678;50.058;8.306;2022-09-13T14:57:21;7.70;;;5.27;;
15155;SDS011;7678;50.058;8.306;2022-09-13T14:59:54;8.00;;;4.80;;
15155;SDS011;7678;50.058;8.306;2022-09-13T15:02:26;7.70;;;5.17;;
15155;SDS011;7678;50.058;8.306;2022-09-13T15:04:57;8.40;;;4.63;;
15155;SDS011;7678;50.058;8.306;2022-09-13T15:07:28;5.17;;;4.20;;
15155;SDS011;7678;50.058;8.306;2022-09-13T15:10:04;5.93;;;4.40;;
15155;SDS011;7678;50.058;8.306;2022-09-13T15:12:34;4.57;;;3.20;;
15155;SDS011;7678;50.058;8.306;2022-09-13T15:15:22;4.37;;;3.73;;
15155;SDS011;7678;50.058;8.306;2022-09-13T15:18:22;3.60;;;3.30;;
15155;SDS011;7678;50.058;8.306;2022-09-13T15:20:52;6.83;;;4.83;;
15155;SDS011;7678;50.058;8.306;2022-09-13T15:23:23;6.23;;;4.30;;
15155;SDS011;7678;50.058;8.306;2022-09-13T15:25:53;4.23;;;3.43;;
15155;SDS011;7678;50.058;8.306;2022-09-13T15:28:24;4.30;;;3.10;;
15155;SDS011;7678;50.058;8.306;2022-09-13T15:30:54;6.20;;;3.83;;
15155;SDS011;7678;50.058;8.306;2022-09-13T15:33:26;6.93;;;3.53;;
15155;SDS011;7678;50.058;8.306;2022-09-13T15:36:13;5.77;;;3.80;;
15155;SDS011;7678;50.058;8.306;2022-09-13T15:38:56;5.67;;;5.00;;
15155;SDS011;7678;50.058;8.306;2022-09-13T15:41:30;5.00;;;4.50;;
15155;SDS011;7678;50.058;8.306;2022-09-13T15:43:59;5.53;;;3.97;;
15155;SDS011;7678;50.058;8.306;2022-09-13T15:46:28;8.93;;;4.17;;
15155;SDS011;7678;50.058;8.306;2022-09-13T15:48:58;7.43;;;4.40;;
15155;SDS011;7678;50.058;8.306;2022-09-13T15:51:28;6.63;;;4.30;;
15155;SDS011;7678;50.058;8.306;2022-09-13T15:54:04;11.50;;;4.50;;
15155;SDS011;7678;50.058;8.306;2022-09-13T15:56:37;6.13;;;4.27;;
15155;SDS011;7678;50.058;8.306;2022-09-13T15:59:10;6.07;;;3.53;;
15155;SDS011;7678;50.058;8.306;2022-09-13T16:01:40;7.23;;;3.67;;
15155;SDS011;7678;50.058;8.306;2022-09-13T16:04:10;6.10;;;3.53;;
15155;SDS011;7678;50.058;8.306;2022-09-13T16:06:38;5.57;;;4.10;;
15155;SDS011;7678;50.058;8.306;2022-09-13T16:09:10;6.10;;;4.83;;
15155;SDS011;7678;50.058;8.306;2022-09-13T16:11:43;5.17;;;4.67;;
15155;SDS011;7678;50.058;8.306;2022-09-13T16:14:12;5.50;;;4.00;;